Time;durP1;ratioP1;P1;durP2;ratioP2;P2;SDS_P1;SDS_P2;PMS_P1;PMS_P2;Temp;Humidity;BMP_temperature;BMP_pressure;BME280_temperature;BME280_humidity;BME280_pressure;Samples;Min_cycle;Max_cycle;Signal;HPM_P1;HPM_P2
2022/06/04 00:01:49;;;;;;;2.55;1.00;;;;;;;17.44;70.38;100525.78;5083059;28;20493;-80
2022/06/04 00:04:18;;;;;;;1.85;0.70;;;;;;;17.40;71.72;100526.66;5089857;28;20486;-81
2022/06/04 00:06:48;;;;;;;2.20;1.08;;;;;;;17.19;73.36;100510.13;5091650;28;20048;-84
2022/06/04 00:09:18;;;;;;;1.95;0.70;;;;;;;17.18;71.37;100518.88;5075201;28;20043;-82
2022/06/04 00:17:23;;;;;;;2.05;0.73;;;;;;;17.00;75.63;100529.34;5078160;28;20055;-80
2022/06/04 00:19:52;;;;;;;1.80;0.70;;;;;;;17.00;75.45;100518.88;5085279;28;20051;-80
2022/06/04 00:22:20;;;;;;;1.52;0.80;;;;;;;17.01;76.65;100520.63;5076109;28;20045;-82
2022/06/04 00:24:49;;;;;;;1.92;0.85;;;;;;;16.96;76.01;100521.47;5082572;28;20048;-81
2022/06/04 00:27:22;;;;;;;1.92;0.70;;;;;;;16.89;77.65;100516.25;5080657;28;20060;-82
2022/06/04 00:29:50;;;;;;;;;;;;;;;16.88;78.88;100522.34;5082952;28;20482;-78
2022/06/04 00:32:19;;;;;;;2.20;0.68;;;;;;;16.83;78.63;100522.34;5079893;28;19947;-79
2022/06/04 00:34:48;;;;;;;2.58;0.50;;;;;;;16.75;78.94;100524.06;5085139;28;20047;-80
2022/06/04 00:37:17;;;;;;;1.63;0.63;;;;;;;16.76;79.75;100520.56;5079567;28;20063;-81
2022/06/04 00:39:46;;;;;;;1.77;0.70;;;;;;;16.77;80.50;100522.34;5084195;28;20127;-82
2022/06/04 00:42:20;;;;;;;1.40;0.68;;;;;;;16.77;80.12;100522.34;5086145;28;20348;-81
2022/06/04 00:45:32;;;;;;;1.73;1.00;;;;;;;16.76;80.24;100515.34;5081856;28;20131;-82
2022/06/04 00:48:04;;;;;;;2.03;0.65;;;;;;;16.76;81.11;100517.97;5077495;28;20044;-80
2022/06/04 00:50:34;;;;;;;1.23;0.75;;;;;;;16.76;81.38;100513.59;5077250;28;20506;-81
2022/06/04 00:53:07;;;;;;;1.60;1.02;;;;;;;16.81;84.86;100523.22;5080658;28;20052;-81
2022/06/04 00:55:43;;;;;;;1.95;1.08;;;;;;;16.81;84.79;100518.84;5072340;28;20051;-81
2022/06/04 00:58:38;;;;;;;2.55;0.98;;;;;;;16.80;84.14;100519.75;5072597;28;20506;-82
2022/06/04 01:01:15;;;;;;;1.98;0.75;;;;;;;16.78;83.24;100513.59;5077977;28;20134;-82
2022/06/04 01:03:57;;;;;;;2.85;1.13;;;;;;;16.76;84.79;100520.56;5089200;28;20058;-85
2022/06/04 01:06:39;;;;;;;3.30;0.83;;;;;;;16.74;83.68;100517.97;5072282;28;20048;-84
2022/06/04 01:09:37;;;;;;;1.95;0.95;;;;;;;16.70;83.33;100511.00;5085084;28;20477;-83
2022/06/04 01:12:21;;;;;;;1.40;1.10;;;;;;;16.64;83.87;100517.97;5084244;28;20051;-83
2022/06/04 01:15:02;;;;;;;1.42;0.88;;;;;;;16.61;83.87;100505.78;5079849;28;20055;-84
2022/06/04 01:17:39;;;;;;;1.48;1.00;;;;;;;16.59;85.11;100517.09;5077817;28;20043;-84
2022/06/04 01:20:18;;;;;;;1.42;1.00;;;;;;;16.60;88.94;100511.00;5089393;28;20043;-84
2022/06/04 01:23:09;;;;;;;2.70;1.23;;;;;;;16.60;90.82;100511.00;5084905;28;20072;-84
2022/06/04 01:26:00;;;;;;;1.60;1.10;;;;;;;16.57;91.57;100511.00;5077168;28;20051;-87
2022/06/04 01:28:32;;;;;;;1.50;1.20;;;;;;;16.53;92.89;100513.59;5087086;28;20048;-87
2022/06/04 01:31:05;;;;;;;2.17;1.05;;;;;;;16.51;94.03;100509.22;5082585;28;20489;-84
2022/06/04 01:33:39;;;;;;;1.92;1.00;;;;;;;16.44;92.84;100513.56;5086733;28;20040;-82
2022/06/04 01:36:14;;;;;;;3.30;0.90;;;;;;;16.39;93.97;100512.69;5088291;28;20533;-84
2022/06/04 01:38:46;;;;;;;2.83;1.50;;;;;;;16.32;94.31;100513.56;5088750;28;20048;-82
2022/06/04 01:41:22;;;;;;;2.78;1.27;;;;;;;16.28;95.11;100517.03;5064325;28;20040;-81
2022/06/04 01:43:55;;;;;;;2.15;0.98;;;;;;;16.20;93.22;100521.38;5040115;28;20049;-83
2022/06/04 01:46:27;;;;;;;1.05;0.75;;;;;;;16.16;93.81;100527.44;5049133;28;20041;-84
2022/06/04 01:48:59;;;;;;;3.28;0.93;;;;;;;16.10;95.15;100523.97;5048637;28;20499;-83
2022/06/04 01:51:30;;;;;;;;;;;;;;;16.03;94.94;100510.88;5043677;28;20041;-79
2022/06/04 01:54:06;;;;;;;2.53;1.13;;;;;;;15.96;98.01;100520.41;5039632;28;20420;-79
2022/06/04 01:56:39;;;;;;;2.25;1.17;;;;;;;15.92;97.17;100523.91;5033656;28;20048;-77
2022/06/04 01:59:16;;;;;;;2.78;1.10;;;;;;;15.88;99.06;100523.00;5040713;28;20048;-81
2022/06/04 02:01:48;;;;;;;2.75;1.15;;;;;;;15.82;100.00;100528.19;5022668;28;20483;-81
2022/06/04 02:04:21;;;;;;;1.37;1.10;;;;;;;15.70;100.00;100529.00;5037254;28;20045;-81
2022/06/04 02:09:37;;;;;;;5.50;1.80;;;;;;;15.67;100.00;100528.09;5033800;28;20044;-83
2022/06/04 02:12:10;;;;;;;3.25;1.92;;;;;;;15.59;100.00;100524.56;5036147;28;20071;-82
2022/06/04 02:14:39;;;;;;;6.07;2.28;;;;;;;15.59;100.00;100530.66;5034714;28;20072;-83
2022/06/04 02:17:13;;;;;;;6.25;2.33;;;;;;;15.53;100.00;100525.41;5034374;28;20045;-81
2022/06/04 02:19:41;;;;;;;5.13;2.17;;;;;;;15.49;100.00;100524.50;5040213;28;20041;-82
2022/06/04 02:22:11;;;;;;;3.67;1.38;;;;;;;15.38;100.00;100518.38;5033935;28;20550;-82
2022/06/04 02:24:41;;;;;;;5.28;1.73;;;;;;;15.32;100.00;100530.47;5042337;28;20041;-77
2022/06/04 02:27:11;;;;;;;2.15;1.42;;;;;;;15.19;100.00;100522.59;5045887;28;20680;-78
2022/06/04 02:29:40;;;;;;;6.75;1.20;;;;;;;15.14;100.00;100513.88;5031464;28;20046;-79
2022/06/04 02:32:19;;;;;;;2.05;1.50;;;;;;;15.12;100.00;100517.31;5044243;28;20067;-81
2022/06/04 02:34:59;;;;;;;3.60;1.88;;;;;;;15.12;100.00;100518.22;5039808;28;20052;-80
2022/06/04 02:37:33;;;;;;;5.18;2.65;;;;;;;15.12;100.00;100525.13;5050712;28;20044;-82
2022/06/04 02:40:06;;;;;;;5.97;3.00;;;;;;;15.10;100.00;100521.66;5040290;28;20049;-83
2022/06/04 02:42:42;;;;;;;4.53;2.20;;;;;;;15.09;100.00;100512.94;5063202;28;20463;-81
2022/06/04 02:45:16;;;;;;;4.70;2.42;;;;;;;15.09;100.00;100520.78;5064883;28;20099;-80
2022/06/04 02:47:49;;;;;;;3.10;2.20;;;;;;;15.04;100.00;100522.47;5072507;28;20048;-81
2022/06/04 02:50:22;;;;;;;4.00;2.40;;;;;;;14.99;100.00;100516.38;5072096;28;20048;-80
2022/06/04 02:52:53;;;;;;;5.05;2.10;;;;;;;14.95;100.00;100509.38;5070906;28;20048;-79
2022/06/04 02:55:25;;;;;;;6.32;2.38;;;;;;;14.87;100.00;100497.16;5070742;28;20041;-84
2022/06/04 02:57:59;;;;;;;4.05;2.13;;;;;;;14.97;100.00;100512.88;5068662;28;20079;-84
2022/06/04 03:00:30;;;;;;;3.72;2.15;;;;;;;14.96;100.00;100512.00;5069506;28;20079;-81
2022/06/04 03:02:58;;;;;;;5.65;2.05;;;;;;;14.96;100.00;100508.53;5070420;28;20059;-80
2022/06/04 03:05:29;;;;;;;7.95;2.28;;;;;;;14.95;100.00;100509.38;5071124;28;20698;-85
2022/06/04 03:08:03;;;;;;;4.57;2.65;;;;;;;14.92;100.00;100494.59;5058301;28;20642;-84
2022/06/04 03:10:33;;;;;;;4.20;2.30;;;;;;;14.93;100.00;100503.28;5069479;28;20060;-81
2022/06/04 03:13:04;;;;;;;4.10;2.63;;;;;;;14.88;100.00;100493.69;5059454;28;20048;-83
2022/06/04 03:15:32;;;;;;;5.45;2.38;;;;;;;14.87;100.00;100499.78;5063905;28;20076;-83
2022/06/04 03:18:01;;;;;;;4.45;2.72;;;;;;;14.86;100.00;100495.41;5061680;28;20490;-88
2022/06/04 03:20:30;;;;;;;5.20;2.70;;;;;;;14.85;100.00;100496.28;5069776;28;20067;-82
2022/06/04 03:22:58;;;;;;;6.45;2.53;;;;;;;14.80;100.00;100490.19;5071269;28;20087;-83
2022/06/04 03:25:28;;;;;;;4.53;2.17;;;;;;;14.80;100.00;100494.53;5072905;28;20509;-82
2022/06/04 03:27:56;;;;;;;3.33;1.88;;;;;;;14.77;100.00;100494.47;5065784;28;20095;-82
2022/06/04 03:30:27;;;;;;;5.38;2.50;;;;;;;14.76;100.00;100495.34;5064346;28;20482;-83
2022/06/04 03:32:56;;;;;;;5.38;2.08;;;;;;;14.77;100.00;100491.88;5069873;28;20055;-82
2022/06/04 03:35:25;;;;;;;9.95;2.72;;;;;;;14.75;100.00;100497.09;5064662;28;20037;-81
2022/06/04 03:37:54;;;;;;;2.58;1.67;;;;;;;14.74;100.00;100495.31;5061423;28;20037;-82
2022/06/04 03:40:22;;;;;;;4.28;1.70;;;;;;;14.74;100.00;100487.50;5071382;28;20054;-79
2022/06/04 03:42:51;;;;;;;5.18;1.63;;;;;;;14.76;100.00;100498.81;5066973;28;20074;-83
2022/06/04 03:45:20;;;;;;;3.55;1.40;;;;;;;14.69;100.00;100499.63;5070740;28;20064;-80
2022/06/04 03:47:50;;;;;;;4.55;1.92;;;;;;;14.71;100.00;100502.25;5068054;28;20406;-83
2022/06/04 03:50:19;;;;;;;4.28;2.20;;;;;;;14.71;100.00;100502.25;5069731;28;20060;-81
2022/06/04 03:52:50;;;;;;;4.25;2.03;;;;;;;14.71;100.00;100503.13;5069564;28;20480;-82
2022/06/04 03:55:20;;;;;;;5.05;2.22;;;;;;;14.74;100.00;100499.66;5068866;28;20052;-82
2022/06/04 03:57:50;;;;;;;4.05;2.13;;;;;;;14.75;100.00;100507.50;5069037;28;20456;-82
2022/06/04 04:00:22;;;;;;;2.17;1.23;;;;;;;14.76;100.00;100493.59;5070225;28;20087;-82
2022/06/04 04:02:55;;;;;;;2.10;1.20;;;;;;;14.80;100.00;100495.38;5067464;28;20490;-82
2022/06/04 04:05:26;;;;;;;2.63;1.50;;;;;;;14.83;100.00;100495.41;5068194;28;20060;-80
2022/06/04 04:07:56;;;;;;;3.27;1.60;;;;;;;14.85;100.00;100495.41;5067978;28;20080;-83
2022/06/04 04:10:25;;;;;;;6.80;1.75;;;;;;;14.84;100.00;100491.94;5067045;28;20339;-82
2022/06/04 04:12:54;;;;;;;2.30;1.60;;;;;;;14.80;100.00;100495.38;5066539;28;20047;-81
2022/06/04 04:15:23;;;;;;;2.22;1.48;;;;;;;14.75;100.00;100485.78;5066140;28;20136;-78
2022/06/04 04:17:54;;;;;;;2.95;1.75;;;;;;;14.72;100.00;100485.75;5066121;28;20045;-79
2022/06/04 04:20:24;;;;;;;6.18;3.00;;;;;;;14.69;100.00;100494.41;5062245;28;20048;-79
2022/06/04 04:22:54;;;;;;;10.02;3.60;;;;;;;14.64;100.00;100483.97;5065728;28;20044;-78
2022/06/04 04:25:24;;;;;;;6.72;3.15;;;;;;;14.58;100.00;100478.69;5066789;28;20510;-78
2022/06/04 04:27:53;;;;;;;6.22;2.80;;;;;;;14.67;100.00;100493.53;5062767;28;20616;-80
2022/06/04 04:30:25;;;;;;;4.50;2.35;;;;;;;14.67;100.00;100490.94;5069747;28;20044;-79
2022/06/04 04:32:55;;;;;;;4.03;2.30;;;;;;;14.62;100.00;100498.69;5067708;28;20044;-79
2022/06/04 04:35:27;;;;;;;5.75;2.63;;;;;;;14.60;100.00;100502.16;5061983;28;20051;-80
2022/06/04 04:37:56;;;;;;;9.60;2.95;;;;;;;14.58;100.00;100493.44;5071642;28;20048;-81
2022/06/04 04:40:26;;;;;;;2.45;1.52;;;;;;;14.56;100.00;100500.38;5066681;28;20052;-79
2022/06/04 04:42:55;;;;;;;5.63;1.80;;;;;;;14.51;100.00;100500.28;5064769;28;20144;-79
2022/06/04 04:45:25;;;;;;;3.97;1.65;;;;;;;14.48;100.00;100499.38;5065022;28;20524;-78
2022/06/04 04:47:56;;;;;;;7.20;2.35;;;;;;;14.50;100.00;100502.88;5067093;28;20071;-79
2022/06/04 04:50:27;;;;;;;3.95;1.95;;;;;;;14.46;100.00;100500.25;5068057;28;20045;-79
2022/06/04 04:52:57;;;;;;;5.97;1.50;;;;;;;14.43;100.00;100505.44;5056401;28;20050;-81
2022/06/04 04:55:26;;;;;;;4.22;1.60;;;;;;;14.41;100.00;100501.09;5068222;28;20105;-80
2022/06/04 04:57:54;;;;;;;3.55;1.60;;;;;;;14.35;100.00;100499.28;5061651;28;20077;-80
2022/06/04 05:00:23;;;;;;;2.80;1.30;;;;;;;14.34;100.00;100497.53;5049813;28;20048;-79
2022/06/04 05:02:52;;;;;;;5.63;1.83;;;;;;;14.31;100.00;100492.28;5052766;28;20214;-81
2022/06/04 05:05:22;;;;;;;2.90;1.38;;;;;;;14.36;100.00;100493.22;5053479;28;20041;-78
2022/06/04 05:07:51;;;;;;;2.22;1.58;;;;;;;14.41;100.00;100501.94;5055998;28;20414;-79
2022/06/04 05:10:20;;;;;;;2.53;1.85;;;;;;;14.42;100.00;100503.69;5052388;28;20049;-79
2022/06/04 05:12:51;;;;;;;2.67;1.30;;;;;;;14.42;100.00;100508.88;5056613;28;20541;-79
2022/06/04 05:15:20;;;;;;;3.07;1.73;;;;;;;14.40;100.00;100504.53;5068764;28;20490;-79
2022/06/04 05:17:55;;;;;;;3.50;1.75;;;;;;;14.41;100.00;100499.34;5055976;28;20055;-81
2022/06/04 05:20:26;;;;;;;4.30;1.58;;;;;;;14.44;100.00;100507.19;5060078;28;20045;-78
2022/06/04 05:22:54;;;;;;;1.45;1.13;;;;;;;14.42;100.00;100498.47;5060438;28;20040;-79
2022/06/04 05:25:23;;;;;;;4.78;1.55;;;;;;;14.49;100.00;100499.41;5070994;28;20073;-80
2022/06/04 05:27:52;;;;;;;2.88;1.33;;;;;;;14.52;100.00;100504.63;5067741;28;20044;-81
2022/06/04 05:30:20;;;;;;;3.08;1.60;;;;;;;14.56;100.00;100496.03;5062721;28;20505;-79
2022/06/04 05:32:49;;;;;;;1.77;1.40;;;;;;;14.56;100.00;100498.63;5069815;28;20056;-79
2022/06/04 05:35:18;;;;;;;5.22;1.90;;;;;;;14.57;100.00;100499.53;5068897;28;20482;-78
2022/06/04 05:37:48;;;;;;;2.30;1.23;;;;;;;14.57;100.00;100497.78;5069187;28;20048;-79
2022/06/04 05:40:17;;;;;;;3.40;1.98;;;;;;;14.49;100.00;100496.81;5067367;28;20056;-78
2022/06/04 05:42:46;;;;;;;1.65;1.23;;;;;;;14.49;100.00;100501.16;5048782;27;20064;-80
2022/06/04 05:45:15;;;;;;;2.58;1.40;;;;;;;14.46;100.00;100497.66;5046351;28;20545;-79
2022/06/04 05:47:43;;;;;;;6.70;1.52;;;;;;;14.46;100.00;100486.38;5035950;28;20065;-79
2022/06/04 05:50:12;;;;;;;1.90;1.45;;;;;;;14.37;100.00;100473.28;5052955;28;20511;-79
2022/06/04 05:52:41;;;;;;;3.50;1.58;;;;;;;14.51;100.00;100486.41;5031085;28;20049;-79
2022/06/04 05:55:12;;;;;;;3.80;1.30;;;;;;;14.53;100.00;100479.50;5046205;28;20049;-80
2022/06/04 05:57:40;;;;;;;2.65;1.50;;;;;;;14.55;100.00;100488.22;5035428;28;20045;-80
2022/06/04 06:00:10;;;;;;;3.50;1.55;;;;;;;14.50;100.00;100485.56;5038380;28;20045;-80
2022/06/04 06:02:39;;;;;;;3.30;1.35;;;;;;;14.47;100.00;100485.50;5034527;28;20514;-79
2022/06/04 06:05:08;;;;;;;2.80;1.42;;;;;;;14.49;100.00;100482.91;5040119;28;20055;-79
2022/06/04 06:07:37;;;;;;;4.00;1.33;;;;;;;14.47;100.00;100480.28;5045392;28;20076;-79
2022/06/04 06:10:06;;;;;;;2.17;1.30;;;;;;;14.48;100.00;100481.16;5040809;28;20041;-79
2022/06/04 06:12:37;;;;;;;1.80;1.38;;;;;;;14.46;100.00;100478.56;5036554;28;20041;-79
2022/06/04 06:15:06;;;;;;;2.25;1.27;;;;;;;14.48;100.00;100475.94;5041391;28;20069;-79
2022/06/04 06:17:35;;;;;;;2.03;1.40;;;;;;;14.46;100.00;100475.97;5051335;28;20057;-79
2022/06/04 06:20:04;;;;;;;3.90;1.30;;;;;;;14.42;100.00;100472.44;5052991;28;20041;-79
2022/06/04 06:22:33;;;;;;;2.67;1.50;;;;;;;14.42;100.00;100469.84;5050776;28;20063;-79
2022/06/04 06:25:05;;;;;;;3.08;1.23;;;;;;;14.41;100.00;100467.25;5061531;28;20434;-78
2022/06/04 06:27:33;;;;;;;4.73;1.40;;;;;;;14.42;100.00;100475.03;5054480;28;20121;-80
2022/06/04 06:30:04;;;;;;;3.08;1.30;;;;;;;14.41;100.00;100470.72;5055335;28;20483;-78
2022/06/04 06:32:32;;;;;;;4.43;2.00;;;;;;;14.40;100.00;100470.69;5051500;28;20114;-78
2022/06/04 06:35:01;;;;;;;3.05;1.42;;;;;;;14.39;100.00;100466.34;5053155;28;20557;-78
2022/06/04 06:37:30;;;;;;;3.05;1.40;;;;;;;14.39;100.00;100458.53;5051473;28;20053;-78
2022/06/04 06:39:58;;;;;;;1.73;1.35;;;;;;;14.38;100.00;100468.06;5049859;28;20049;-80
2022/06/04 06:42:33;;;;;;;2.95;1.33;;;;;;;14.37;100.00;100458.53;5060993;27;20049;-78
2022/06/04 06:45:03;;;;;;;3.38;1.50;;;;;;;14.31;100.00;100457.59;5069213;28;20049;-78
2022/06/04 06:47:35;;;;;;;2.03;1.45;;;;;;;14.32;100.00;100464.56;5065868;28;20044;-78
2022/06/04 06:50:03;;;;;;;2.03;1.20;;;;;;;14.26;100.00;100457.53;5067221;28;20044;-81
2022/06/04 06:52:32;;;;;;;4.30;1.75;;;;;;;14.32;100.00;100460.22;5068094;28;20045;-78
2022/06/04 06:55:00;;;;;;;3.33;1.42;;;;;;;14.33;100.00;100466.28;5069924;28;20056;-78
2022/06/04 06:57:29;;;;;;;4.63;1.70;;;;;;;14.33;100.00;100456.75;5062087;28;20608;-78
2022/06/04 06:59:57;;;;;;;3.53;1.40;;;;;;;14.32;100.00;100454.16;5064695;28;20040;-78
2022/06/04 07:02:28;;;;;;;4.50;1.55;;;;;;;14.31;100.00;100458.44;5066200;28;20048;-79
2022/06/04 07:04:56;;;;;;;4.10;1.65;;;;;;;14.31;100.00;100466.25;5069313;28;20048;-78
2022/06/04 07:07:25;;;;;;;1.73;1.20;;;;;;;14.32;100.00;100462.81;5063220;28;20041;-78
2022/06/04 07:09:54;;;;;;;2.75;1.27;;;;;;;14.31;100.00;100463.66;5065746;28;20044;-78
2022/06/04 07:12:23;;;;;;;2.55;1.17;;;;;;;14.32;100.00;100461.94;5063323;28;20080;-78
2022/06/04 07:14:51;;;;;;;3.70;1.50;;;;;;;14.32;100.00;100460.22;5065328;28;20048;-78
2022/06/04 07:17:20;;;;;;;1.58;1.45;;;;;;;14.31;100.00;100461.06;5066951;28;20036;-78
2022/06/04 07:19:50;;;;;;;1.83;1.25;;;;;;;14.32;100.00;100460.22;5070423;28;20076;-78
2022/06/04 07:22:19;;;;;;;1.65;1.10;;;;;;;14.32;100.00;100455.00;5062090;28;20103;-78
2022/06/04 07:24:47;;;;;;;4.15;1.38;;;;;;;14.33;100.00;100448.06;5069935;28;20048;-80
2022/06/04 07:27:16;;;;;;;1.88;1.45;;;;;;;14.35;100.00;100451.56;5065106;28;20048;-78
2022/06/04 07:29:45;;;;;;;3.05;1.35;;;;;;;14.35;100.00;100444.63;5070381;28;20048;-78
2022/06/04 07:32:13;;;;;;;5.55;1.45;;;;;;;14.35;100.00;100443.75;5065085;28;20052;-78
2022/06/04 07:34:42;;;;;;;2.63;1.42;;;;;;;14.37;100.00;100452.44;5069507;28;20074;-77
2022/06/04 07:37:12;;;;;;;3.45;1.50;;;;;;;14.35;100.00;100446.34;5068391;28;20043;-78
2022/06/04 07:39:41;;;;;;;3.55;1.40;;;;;;;14.36;100.00;100446.38;5053100;28;20049;-78
2022/06/04 07:42:10;;;;;;;3.70;1.27;;;;;;;14.38;100.00;100439.44;5066920;28;20281;-78
2022/06/04 07:44:38;;;;;;;7.43;1.70;;;;;;;14.40;100.00;100442.06;5063902;28;20091;-78
2022/06/04 07:47:07;;;;;;;4.95;1.10;;;;;;;14.39;100.00;100440.31;5055222;28;20048;-80
2022/06/04 07:49:36;;;;;;;4.55;1.40;;;;;;;14.39;100.00;100440.31;5064546;28;20060;-78
2022/06/04 07:52:04;;;;;;;6.65;1.60;;;;;;;14.39;100.00;100429.91;5055939;28;20082;-78
2022/06/04 07:54:35;;;;;;;2.17;1.38;;;;;;;14.39;100.00;100428.19;5054979;28;20076;-79
2022/06/04 07:57:03;;;;;;;2.65;1.52;;;;;;;14.40;100.00;100427.31;5059924;28;20044;-79
2022/06/04 07:59:32;;;;;;;1.73;1.30;;;;;;;14.36;100.00;100417.75;5057900;28;20051;-79
2022/06/04 08:02:01;;;;;;;3.97;1.48;;;;;;;14.42;100.00;100422.13;5057518;28;20495;-79
2022/06/04 08:04:29;;;;;;;5.25;1.42;;;;;;;14.42;100.00;100424.72;5053180;28;20056;-79
2022/06/04 08:07:01;;;;;;;2.80;1.27;;;;;;;14.40;100.00;100424.69;5054647;28;20056;-78
2022/06/04 08:09:30;;;;;;;4.22;1.60;;;;;;;14.41;100.00;100421.25;5065188;28;20045;-79
2022/06/04 08:12:00;;;;;;;2.75;1.70;;;;;;;14.41;100.00;100423.84;5056554;28;20052;-78
2022/06/04 08:14:29;;;;;;;5.20;1.85;;;;;;;14.40;100.00;100422.09;5057542;28;20049;-77
2022/06/04 08:16:59;;;;;;;3.90;1.35;;;;;;;14.42;100.00;100419.53;5066796;28;20040;-78
2022/06/04 08:19:31;;;;;;;1.98;1.52;;;;;;;14.41;100.00;100417.78;5073166;28;20047;-79
2022/06/04 08:22:00;;;;;;;1.77;1.45;;;;;;;14.44;100.00;100418.66;5059547;28;20041;-78
2022/06/04 08:24:29;;;;;;;4.45;1.70;;;;;;;14.43;100.00;100416.94;5059446;28;20533;-80
2022/06/04 08:27:00;;;;;;;1.88;1.35;;;;;;;14.44;100.00;100417.81;5069337;28;20045;-79
2022/06/04 08:29:37;;;;;;;7.38;1.75;;;;;;;14.44;100.00;100418.66;5053630;28;20053;-78
2022/06/04 08:32:07;;;;;;;2.42;1.70;;;;;;;14.45;100.00;100410.00;5056312;28;20036;-78
2022/06/04 08:34:36;;;;;;;4.30;1.67;;;;;;;14.44;100.00;100405.66;5066124;28;20060;-78
2022/06/04 08:37:06;;;;;;;4.53;1.77;;;;;;;14.44;100.00;100408.25;5063140;28;20049;-78
2022/06/04 08:39:36;;;;;;;3.08;1.30;;;;;;;14.44;100.00;100423.00;5057873;28;20055;-78
2022/06/04 08:42:19;;;;;;;1.90;1.10;;;;;;;14.42;100.00;100409.97;5068473;28;20060;-79
2022/06/04 08:44:48;;;;;;;;;;;;;;;14.41;100.00;100407.38;5063005;28;20040;-78
2022/06/04 08:47:19;;;;;;;1.77;1.30;;;;;;;14.39;100.00;100412.56;5068095;28;19942;-78
2022/06/04 08:49:50;;;;;;;2.60;1.33;;;;;;;14.38;100.00;100413.41;5065034;28;20055;-79
2022/06/04 08:52:22;;;;;;;2.15;1.27;;;;;;;14.38;100.00;100413.41;5068020;28;20067;-79
2022/06/04 08:57:50;;;;;;;2.63;1.20;;;;;;;14.41;100.00;100413.44;5063699;28;20513;-79
2022/06/04 09:00:24;;;;;;;6.63;2.20;;;;;;;14.42;100.00;100411.72;5052044;28;20562;-80
2022/06/04 09:03:02;;;;;;;5.85;1.98;;;;;;;14.43;100.00;100406.53;5064839;28;20465;-79
2022/06/04 09:05:55;;;;;;;2.15;1.20;;;;;;;14.44;100.00;100403.06;5054244;28;20052;-79
2022/06/04 09:08:33;;;;;;;2.22;1.35;;;;;;;14.44;100.00;100399.59;5059965;28;20047;-78
2022/06/04 09:11:10;;;;;;;4.40;2.00;;;;;;;14.45;100.00;100404.81;5059971;28;20549;-80
2022/06/04 09:13:46;;;;;;;3.88;1.60;;;;;;;14.45;100.00;100404.81;5067665;28;20051;-81
2022/06/04 09:16:25;;;;;;;4.43;1.52;;;;;;;14.46;100.00;100405.69;5076035;28;20054;-79
2022/06/04 09:19:00;;;;;;;5.45;1.80;;;;;;;14.46;100.00;100401.34;5067083;28;20049;-79
2022/06/04 09:21:36;;;;;;;2.28;1.65;;;;;;;14.45;100.00;100402.22;5077846;28;20522;-79
2022/06/04 09:24:05;;;;;;;3.45;1.40;;;;;;;14.43;100.00;100409.13;5063192;28;20048;-78
2022/06/04 09:26:40;;;;;;;3.95;1.85;;;;;;;14.43;100.00;100403.94;5057409;28;20092;-78
2022/06/04 09:29:26;;;;;;;5.53;1.85;;;;;;;14.42;100.00;100402.16;5064458;28;20044;-79
2022/06/04 09:32:04;;;;;;;2.70;1.77;;;;;;;14.42;100.00;100399.56;5056075;28;20049;-78
2022/06/04 09:34:37;;;;;;;4.18;1.70;;;;;;;14.40;100.00;100403.88;5054081;28;20425;-80
2022/06/04 09:37:07;;;;;;;2.30;1.60;;;;;;;14.36;100.00;100402.13;5058499;28;20931;-79
2022/06/04 09:39:38;;;;;;;4.25;1.60;;;;;;;14.31;100.00;100403.81;5065213;28;20052;-79
2022/06/04 09:42:20;;;;;;;3.10;1.50;;;;;;;14.32;100.00;100402.97;5068489;28;20048;-79
2022/06/04 09:44:55;;;;;;;4.93;1.50;;;;;;;14.33;100.00;100402.09;5052565;28;20136;-79
2022/06/04 09:47:28;;;;;;;1.65;1.52;;;;;;;14.35;100.00;100402.97;5062461;28;20797;-79
2022/06/04 09:50:00;;;;;;;4.05;1.92;;;;;;;14.36;100.00;100398.63;5057120;28;20053;-80
2022/06/04 09:52:38;;;;;;;4.47;1.45;;;;;;;14.32;100.00;100397.75;5066387;28;20694;-79
2022/06/04 09:55:18;;;;;;;1.65;1.30;;;;;;;14.31;100.00;100390.78;5066566;28;20041;-79
2022/06/04 09:57:58;;;;;;;3.05;1.80;;;;;;;14.32;100.00;100386.47;5062090;28;20045;-79
2022/06/04 10:00:30;;;;;;;3.25;1.42;;;;;;;14.34;100.00;100383.03;5061156;28;20584;-79
2022/06/04 10:03:01;;;;;;;2.50;1.50;;;;;;;14.35;100.00;100382.16;5056997;28;20052;-81
2022/06/04 10:05:33;;;;;;;2.78;1.60;;;;;;;14.35;100.00;100383.88;5066145;28;20045;-79
2022/06/04 10:08:01;;;;;;;;;;;;;;;14.34;100.00;100377.81;5063187;28;20498;-79
2022/06/04 10:10:39;;;;;;;4.05;1.70;;;;;;;14.35;100.00;100381.28;5069323;28;19989;-79
2022/06/04 10:16:16;;;;;;;2.88;1.35;;;;;;;14.34;100.00;100377.81;5062560;28;20118;-79
2022/06/04 10:18:58;;;;;;;2.53;1.60;;;;;;;14.33;100.00;100376.06;5062787;28;20106;-79
2022/06/04 10:21:29;;;;;;;4.05;0.98;;;;;;;14.35;100.00;100371.75;5062534;28;20051;-79
2022/06/04 10:23:59;;;;;;;7.32;1.52;;;;;;;14.35;100.00;100373.47;5063083;28;20037;-79
2022/06/04 10:26:57;;;;;;;3.70;1.38;;;;;;;14.32;100.00;100363.91;5066452;28;20049;-79
2022/06/04 10:29:53;;;;;;;2.45;1.42;;;;;;;14.33;100.00;100367.38;5062627;28;20052;-79
2022/06/04 10:32:31;;;;;;;9.77;1.60;;;;;;;14.32;100.00;100361.31;5074465;28;20040;-79
2022/06/04 10:35:08;;;;;;;2.60;1.40;;;;;;;14.31;100.00;100359.56;5067074;28;20049;-79
2022/06/04 10:37:50;;;;;;;4.72;1.50;;;;;;;14.33;100.00;100356.97;5054229;28;20056;-79
2022/06/04 10:40:36;;;;;;;2.92;1.60;;;;;;;14.31;100.00;100349.16;5062587;28;20590;-79
2022/06/04 10:43:18;;;;;;;4.82;1.60;;;;;;;14.31;100.00;100349.16;5057979;28;20060;-79
2022/06/04 10:45:53;;;;;;;2.03;1.50;;;;;;;14.31;100.00;100349.16;5061625;28;20037;-79
2022/06/04 10:48:40;;;;;;;4.20;1.60;;;;;;;14.30;100.00;100344.81;5049613;28;20521;-79
2022/06/04 10:51:28;;;;;;;1.60;1.23;;;;;;;14.31;100.00;100354.34;5052812;28;20103;-79
2022/06/04 10:54:06;;;;;;;3.08;1.70;;;;;;;14.31;100.00;100343.06;5052760;28;20086;-79
2022/06/04 10:56:43;;;;;;;2.25;1.33;;;;;;;14.29;100.00;100348.25;5059363;28;20483;-79
2022/06/04 10:59:20;;;;;;;2.35;1.30;;;;;;;14.28;100.00;100343.06;5069903;28;20040;-79
2022/06/04 11:01:56;;;;;;;2.97;1.48;;;;;;;14.28;100.00;100338.72;5054385;28;20055;-79
2022/06/04 11:04:36;;;;;;;2.38;1.33;;;;;;;14.28;100.00;100333.53;5055088;28;20518;-81
2022/06/04 11:07:36;;;;;;;2.15;1.23;;;;;;;14.17;100.00;100328.22;5063088;28;20059;-79
2022/06/04 11:10:08;;;;;;;2.70;1.30;;;;;;;14.29;100.00;100330.03;5055323;28;20049;-80
2022/06/04 11:12:43;;;;;;;2.23;1.20;;;;;;;14.30;100.00;100339.63;5055931;28;20119;-79
2022/06/04 11:15:18;;;;;;;2.05;1.10;;;;;;;14.31;100.00;100335.28;5057289;28;20045;-77
2022/06/04 11:17:52;;;;;;;3.17;1.00;;;;;;;14.31;100.00;100333.53;5058685;28;20417;-78
2022/06/04 11:20:26;;;;;;;3.95;1.13;;;;;;;14.30;100.00;100325.75;5069913;28;20052;-81
2022/06/04 11:23:12;;;;;;;4.13;1.30;;;;;;;14.31;100.00;100328.31;5059765;28;20406;-79
2022/06/04 11:25:43;;;;;;;3.65;1.48;;;;;;;14.31;100.00;100330.94;5078953;28;20083;-79
2022/06/04 11:28:14;;;;;;;2.38;1.23;;;;;;;14.30;100.00;100324.00;5070215;28;20049;-81
2022/06/04 11:30:52;;;;;;;2.35;1.10;;;;;;;14.30;100.00;100325.75;5051461;28;20044;-81
2022/06/04 11:33:32;;;;;;;2.50;1.38;;;;;;;14.30;100.00;100325.75;5058016;28;20041;-78
2022/06/04 11:36:10;;;;;;;2.25;1.30;;;;;;;14.29;100.00;100321.38;5064199;28;20052;-78
2022/06/04 11:39:01;;;;;;;3.30;1.40;;;;;;;14.26;100.00;100327.44;5062343;28;20052;-78
2022/06/04 11:41:38;;;;;;;2.10;1.17;;;;;;;14.24;100.00;100326.53;5065163;28;20724;-78
2022/06/04 11:44:41;;;;;;;2.65;1.50;;;;;;;14.21;100.00;100326.53;5066424;28;20056;-78
2022/06/04 11:47:23;;;;;;;3.92;1.63;;;;;;;14.19;100.00;100328.25;5069382;28;20041;-78
2022/06/04 11:50:03;;;;;;;3.63;1.38;;;;;;;14.19;100.00;100328.25;5065769;28;20052;-78
2022/06/04 11:52:36;;;;;;;3.75;1.17;;;;;;;14.19;100.00;100321.31;5066462;28;20044;-79
2022/06/04 11:55:27;;;;;;;2.53;1.33;;;;;;;14.15;100.00;100321.25;5059109;28;20505;-79
2022/06/04 11:58:36;;;;;;;7.10;1.08;;;;;;;14.16;100.00;100317.81;5071243;28;20052;-78
2022/06/04 12:01:11;;;;;;;2.15;1.02;;;;;;;14.17;100.00;100316.94;5061464;28;20049;-78